createdAt,value
2022-08-10T00:02:11.391Z,22.30
2022-08-10T00:07:13.581Z,22.00
2022-08-10T00:17:18.253Z,21.90
2022-08-10T00:22:20.530Z,21.60
2022-08-10T00:27:58.555Z,21.80
2022-08-10T00:32:45.611Z,21.70
2022-08-10T00:37:56.304Z,21.40
2022-08-10T00:43:00.479Z,21.60
2022-08-10T00:48:03.152Z,21.30
2022-08-10T00:53:05.650Z,21.40
2022-08-10T00:58:08.531Z,21.30
2022-08-10T01:03:10.704Z,21.40
2022-08-10T01:08:30.586Z,21.00
2022-08-10T01:14:01.940Z,21.00
2022-08-10T01:19:25.018Z,21.00
2022-08-10T01:24:43.730Z,20.90
2022-08-10T01:30:04.343Z,20.80
2022-08-10T01:35:12.003Z,20.80
2022-08-10T01:40:16.856Z,20.70
2022-08-10T01:45:22.856Z,20.60
2022-08-10T01:50:59.201Z,20.70
2022-08-10T01:56:03.937Z,20.60
2022-08-10T02:01:10.906Z,20.60
2022-08-10T02:06:23.007Z,20.50
2022-08-10T02:11:28.967Z,20.50
2022-08-10T02:16:52.337Z,20.40
2022-08-10T02:22:36.696Z,20.30
2022-08-10T02:27:18.795Z,20.60
2022-08-10T02:32:36.083Z,20.20
2022-08-10T02:37:43.335Z,20.20
2022-08-10T02:45:19.061Z,19.90
2022-08-10T02:48:44.863Z,20.00
2022-08-10T02:53:57.041Z,20.10
2022-08-10T02:59:06.788Z,19.70
2022-08-10T03:04:17.258Z,20.00
2022-08-10T03:09:20.916Z,19.80
2022-08-10T03:14:25.342Z,19.70
2022-08-10T03:20:34.423Z,19.70
2022-08-10T03:24:53.214Z,19.90
2022-08-10T03:30:31.975Z,19.50
2022-08-10T03:35:19.743Z,19.70
2022-08-10T03:40:22.191Z,19.50
2022-08-10T03:45:56.045Z,19.50
2022-08-10T03:51:00.968Z,19.30
2022-08-10T03:56:28.001Z,19.40
2022-08-10T04:02:41.633Z,19.20
2022-08-10T04:06:56.341Z,19.30
2022-08-10T04:11:58.704Z,19.20
2022-08-10T04:17:00.865Z,19.20
2022-08-10T04:22:08.557Z,19.20
2022-08-10T04:27:11.573Z,19.30
2022-08-10T04:32:17.222Z,19.10
2022-08-10T04:37:22.049Z,19.10
2022-08-10T04:42:24.836Z,19.10
2022-08-10T04:47:51.196Z,19.10
2022-08-10T04:52:49.173Z,19.10
2022-08-10T04:57:51.392Z,19.00
2022-08-10T05:02:53.602Z,18.90
2022-08-10T05:07:56.856Z,18.80
2022-08-10T05:12:59.515Z,18.90
2022-08-10T05:18:09.630Z,19.10
2022-08-10T05:23:13.699Z,19.10
2022-08-10T05:28:15.867Z,19.30
2022-08-10T05:33:18.118Z,19.40
2022-08-10T05:38:22.801Z,19.20
2022-08-10T05:43:25.276Z,19.60
2022-08-10T05:48:54.257Z,19.60
2022-08-10T05:54:04.109Z,19.90
2022-08-10T05:59:08.693Z,20.50
2022-08-10T06:04:13.935Z,20.50
2022-08-10T06:09:17.413Z,20.90
2022-08-10T06:14:39.333Z,20.90
2022-08-10T06:19:47.801Z,21.30
2022-08-10T06:25:26.877Z,22.00
2022-08-10T06:30:19.843Z,22.00
2022-08-10T06:35:28.721Z,22.80
2022-08-10T06:40:39.275Z,23.20
2022-08-10T06:46:06.787Z,23.70
2022-08-10T06:51:34.453Z,23.90
2022-08-10T06:56:50.853Z,24.20
2022-08-10T07:02:15.730Z,24.50
2022-08-10T07:07:24.020Z,24.80
2022-08-10T07:12:28.527Z,25.00
2022-08-10T07:17:37.249Z,25.20
2022-08-10T07:23:22.869Z,25.50
2022-08-10T07:28:08.228Z,25.60
2022-08-10T07:33:13.794Z,25.80
2022-08-10T07:38:26.010Z,26.20
2022-08-10T07:43:34.740Z,26.20
2022-08-10T07:48:43.741Z,26.40
2022-08-10T07:53:51.330Z,26.60
2022-08-10T07:59:30.884Z,26.80
2022-08-10T08:04:34.003Z,27.00
2022-08-10T08:09:58.087Z,27.20
2022-08-10T08:16:14.299Z,27.60
2022-08-10T08:20:26.390Z,27.80
2022-08-10T08:25:33.389Z,27.90
2022-08-10T08:30:37.423Z,28.10
2022-08-10T08:35:40.988Z,28.30
2022-08-10T08:40:52.443Z,28.40
2022-08-10T08:46:32.300Z,28.60
2022-08-10T08:52:18.338Z,28.80
2022-08-10T08:57:49.409Z,29.00
2022-08-10T09:03:07.991Z,29.20
2022-08-10T09:08:37.644Z,29.40
2022-08-10T09:13:48.795Z,29.90
2022-08-10T09:19:09.580Z,29.90
2022-08-10T09:24:28.152Z,29.80
2022-08-10T09:29:38.802Z,30.30
2022-08-10T09:36:25.565Z,30.50
2022-08-10T09:41:00.337Z,30.60
2022-08-10T09:45:55.532Z,30.90
2022-08-10T09:51:45.476Z,31.10
2022-08-10T09:57:44.815Z,31.30
2022-08-10T10:02:58.938Z,31.40
2022-08-10T10:08:27.922Z,31.80
2022-08-10T10:14:03.038Z,31.60
2022-08-10T10:19:30.401Z,31.80
2022-08-10T10:24:50.922Z,32.00
2022-08-10T10:30:12.472Z,32.20
2022-08-10T10:35:14.668Z,32.50
2022-08-10T10:40:19.678Z,32.60
2022-08-10T10:45:42.165Z,32.70
2022-08-10T10:51:20.843Z,32.80
2022-08-10T10:56:28.973Z,32.80
2022-08-10T11:01:42.802Z,32.90
2022-08-10T11:07:10.369Z,32.90
2022-08-10T11:12:29.711Z,33.10
2022-08-10T11:17:51.419Z,33.30
2022-08-10T11:23:07.365Z,33.40
2022-08-10T11:28:27.984Z,33.60
2022-08-10T11:34:47.075Z,33.70
2022-08-10T11:39:37.005Z,33.80
2022-08-10T11:44:57.160Z,34.00
2022-08-10T11:50:23.120Z,34.20
2022-08-10T11:55:32.943Z,34.50
2022-08-10T12:00:37.748Z,34.70
2022-08-10T12:05:51.663Z,34.90
2022-08-10T12:10:58.323Z,35.00
2022-08-10T12:16:14.735Z,35.20
2022-08-10T12:21:31.524Z,35.30
2022-08-10T12:26:39.603Z,35.50
2022-08-10T12:32:05.549Z,35.60
2022-08-10T12:37:15.230Z,35.90
2022-08-10T12:42:45.592Z,36.20
2022-08-10T12:48:05.452Z,36.20
2022-08-10T12:53:24.484Z,36.30
2022-08-10T12:58:57.901Z,36.30
2022-08-10T13:04:23.447Z,36.40
2022-08-10T13:09:24.515Z,36.60
2022-08-10T13:14:32.208Z,36.80
2022-08-10T13:19:54.623Z,37.10
2022-08-10T13:25:02.775Z,37.40
2022-08-10T13:30:07.355Z,37.80
2022-08-10T13:35:18.944Z,38.00
2022-08-10T13:40:22.588Z,38.30
2022-08-10T13:45:27.120Z,38.60
2022-08-10T13:50:34.741Z,38.90
2022-08-10T13:55:54.981Z,39.20
2022-08-10T14:01:00.563Z,39.70
2022-08-10T14:06:05.237Z,39.90
2022-08-10T14:11:14.309Z,40.40
2022-08-10T14:16:18.450Z,41.00
2022-08-10T14:21:21.391Z,41.70
2022-08-10T14:26:31.227Z,42.10
2022-08-10T14:31:37.041Z,42.10
2022-08-10T14:36:53.327Z,41.70
2022-08-10T14:42:02.943Z,41.60
2022-08-10T14:47:51.408Z,42.00
2022-08-10T14:52:44.277Z,42.80
2022-08-10T14:58:19.118Z,43.40
2022-08-10T15:04:01.001Z,43.20
2022-08-10T15:08:38.426Z,42.90
2022-08-10T15:14:29.430Z,42.50
2022-08-10T15:20:00.797Z,42.10
2022-08-10T15:24:56.359Z,41.50
2022-08-10T15:29:59.844Z,40.80
2022-08-10T15:35:22.887Z,40.50
2022-08-10T15:40:37.546Z,40.90
2022-08-10T15:46:01.195Z,42.00
2022-08-10T15:51:10.302Z,43.20
2022-08-10T15:56:17.292Z,44.30
2022-08-10T16:02:14.007Z,45.20
2022-08-10T16:07:19.481Z,46.00
2022-08-10T16:12:32.477Z,46.40
2022-08-10T16:17:55.095Z,46.90
2022-08-10T16:23:04.967Z,47.30
2022-08-10T16:28:10.991Z,47.60
2022-08-10T16:33:53.579Z,47.90
2022-08-10T16:38:53.321Z,48.10
2022-08-10T16:43:59.275Z,48.00
2022-08-10T16:49:02.210Z,47.10
2022-08-10T16:54:07.140Z,45.70
2022-08-10T16:59:10.438Z,44.10
2022-08-10T17:04:24.222Z,42.60
2022-08-10T17:09:29.429Z,41.20
2022-08-10T17:14:31.743Z,39.80
2022-08-10T17:19:43.372Z,38.90
2022-08-10T17:24:59.891Z,38.00
2022-08-10T17:30:07.007Z,37.20
2022-08-10T17:35:23.147Z,36.50
2022-08-10T17:40:29.070Z,35.90
2022-08-10T17:45:47.956Z,35.40
2022-08-10T17:50:54.769Z,34.90
2022-08-10T17:56:00.434Z,34.50
2022-08-10T18:01:40.365Z,34.10
2022-08-10T18:06:28.723Z,33.70
2022-08-10T18:11:40.546Z,33.30
2022-08-10T18:16:44.021Z,32.90
2022-08-10T18:21:48.034Z,32.50
2022-08-10T18:26:52.405Z,32.20
2022-08-10T18:31:58.493Z,31.80
2022-08-10T18:37:05.268Z,31.50
2022-08-10T18:42:18.194Z,31.20
2022-08-10T18:47:33.823Z,30.90
2022-08-10T18:52:39.221Z,30.30
2022-08-10T18:57:47.303Z,30.20
2022-08-10T19:03:21.167Z,30.00
2022-08-10T19:08:58.615Z,29.70
2022-08-10T19:14:14.683Z,29.40
2022-08-10T19:19:25.443Z,29.10
2022-08-10T19:24:43.728Z,28.40
2022-08-10T19:30:13.296Z,28.60
2022-08-10T19:36:04.548Z,28.40
2022-08-10T19:41:19.241Z,28.20
2022-08-10T19:46:42.417Z,27.60
2022-08-10T19:51:56.968Z,27.80
2022-08-10T19:57:17.707Z,27.60
2022-08-10T20:02:32.049Z,27.50
2022-08-10T20:07:46.272Z,27.30
2022-08-10T20:12:54.490Z,27.20
2022-08-10T20:18:25.819Z,27.00
2022-08-10T20:23:35.199Z,26.70
2022-08-10T20:29:16.461Z,26.70
2022-08-10T20:35:21.008Z,26.50
2022-08-10T20:40:34.188Z,26.30
2022-08-10T20:46:07.857Z,26.30
2022-08-10T20:51:19.195Z,25.60
2022-08-10T20:56:52.365Z,25.70
2022-08-10T21:02:20.865Z,25.40
2022-08-10T21:08:01.540Z,25.10
2022-08-10T21:13:26.299Z,25.30
2022-08-10T21:19:06.250Z,24.70
2022-08-10T21:24:16.095Z,24.40
2022-08-10T21:29:56.148Z,24.20
2022-08-10T21:35:10.508Z,23.80
2022-08-10T21:41:18.298Z,23.70
2022-08-10T21:47:10.074Z,23.70
2022-08-10T21:52:40.785Z,23.30
2022-08-10T21:58:48.925Z,23.30
2022-08-10T22:04:09.771Z,23.10
2022-08-10T22:09:42.373Z,22.90
2022-08-10T22:15:06.338Z,22.70
2022-08-10T22:20:40.121Z,22.60
2022-08-10T22:26:22.717Z,22.30
2022-08-10T22:32:02.079Z,22.40
2022-08-10T22:37:55.377Z,22.10
2022-08-10T22:43:33.556Z,22.00
2022-08-10T22:49:00.616Z,21.70
2022-08-10T22:54:46.715Z,21.70
2022-08-10T22:59:50.376Z,21.40
2022-08-10T23:04:57.111Z,21.40
2022-08-10T23:10:14.746Z,21.10
2022-08-10T23:15:51.467Z,20.90
2022-08-10T23:20:56.735Z,21.00
2022-08-10T23:26:00.821Z,20.90
2022-08-10T23:31:09.977Z,20.90
2022-08-10T23:36:33.712Z,20.60
2022-08-10T23:41:38.479Z,20.60
2022-08-10T23:46:42.659Z,20.50
2022-08-10T23:51:55.862Z,20.40
2022-08-10T23:57:00.848Z,20.30
